sensor_id;sensor_type;location;lat;lon;timestamp;pressure;altitude;pressure_sealevel;temperature;humidity
40155;BME280;25875;48.202;16.334;2023-03-18T00:02:26;98975.16;;;4.61;38.34
40155;BME280;25875;48.202;16.334;2023-03-18T00:04:53;99056.41;;;5.12;38.70
40155;BME280;25875;48.202;16.334;2023-03-18T00:07:20;99070.50;;;5.09;38.56
40155;BME280;25875;48.202;16.334;2023-03-18T00:09:48;98898.47;;;4.04;39.42
40155;BME280;25875;48.202;16.334;2023-03-18T00:12:17;99062.81;;;5.05;38.80
40155;BME280;25875;48.202;16.334;2023-03-18T00:14:44;99058.47;;;5.04;38.72
40155;BME280;25875;48.202;16.334;2023-03-18T00:17:11;99059.25;;;5.06;38.84
40155;BME280;25875;48.202;16.334;2023-03-18T00:19:38;99054.91;;;5.05;38.86
40155;BME280;25875;48.202;16.334;2023-03-18T00:22:05;99060.22;;;5.03;38.89
40155;BME280;25875;48.202;16.334;2023-03-18T00:24:32;98931.09;;;4.22;39.14
40155;BME280;25875;48.202;16.334;2023-03-18T00:27:01;99062.19;;;4.98;39.63
40155;BME280;25875;48.202;16.334;2023-03-18T00:29:27;99058.75;;;4.96;39.06
40155;BME280;25875;48.202;16.334;2023-03-18T00:31:55;99061.31;;;4.98;39.03
40155;BME280;25875;48.202;16.334;2023-03-18T00:34:23;99056.81;;;5.01;38.71
40155;BME280;25875;48.202;16.334;2023-03-18T00:36:50;98982.84;;;4.42;38.81
40155;BME280;25875;48.202;16.334;2023-03-18T00:39:21;98995.13;;;4.65;39.24
40155;BME280;25875;48.202;16.334;2023-03-18T00:41:50;99058.00;;;4.93;39.81
40155;BME280;25875;48.202;16.334;2023-03-18T00:44:19;99045.00;;;4.90;39.53
40155;BME280;25875;48.202;16.334;2023-03-18T00:46:46;98977.69;;;4.39;39.84
40155;BME280;25875;48.202;16.334;2023-03-18T00:49:13;99054.25;;;4.75;40.10
40155;BME280;25875;48.202;16.334;2023-03-18T00:51:42;99050.81;;;4.73;40.08
40155;BME280;25875;48.202;16.334;2023-03-18T00:54:10;98963.81;;;4.10;39.07
40155;BME280;25875;48.202;16.334;2023-03-18T00:56:38;98988.63;;;4.27;40.30
40155;BME280;25875;48.202;16.334;2023-03-18T00:59:06;99040.50;;;4.68;39.60
40155;BME280;25875;48.202;16.334;2023-03-18T01:01:35;99055.44;;;4.66;40.27
40155;BME280;25875;48.202;16.334;2023-03-18T01:04:03;99045.91;;;4.64;39.57
40155;BME280;25875;48.202;16.334;2023-03-18T01:06:31;99046.72;;;4.66;40.10
40155;BME280;25875;48.202;16.334;2023-03-18T01:08:59;99043.28;;;4.64;40.08
40155;BME280;25875;48.202;16.334;2023-03-18T01:11:27;99029.34;;;4.62;39.89
40155;BME280;25875;48.202;16.334;2023-03-18T01:13:54;99060.00;;;4.61;40.48
40155;BME280;25875;48.202;16.334;2023-03-18T01:16:21;99037.28;;;4.60;39.76
40155;BME280;25875;48.202;16.334;2023-03-18T01:18:49;99032.84;;;4.62;40.48
40155;BME280;25875;48.202;16.334;2023-03-18T01:21:16;99039.97;;;4.59;40.16
40155;BME280;25875;48.202;16.334;2023-03-18T01:23:43;98955.91;;;4.12;40.93
40155;BME280;25875;48.202;16.334;2023-03-18T01:26:11;99029.00;;;4.47;40.82
40155;BME280;25875;48.202;16.334;2023-03-18T01:28:38;99033.28;;;4.50;39.97
40155;BME280;25875;48.202;16.334;2023-03-18T01:31:05;99029.00;;;4.47;40.07
40155;BME280;25875;48.202;16.334;2023-03-18T01:33:32;99027.28;;;4.46;40.56
40155;BME280;25875;48.202;16.334;2023-03-18T01:36:01;99023.75;;;4.47;40.14
40155;BME280;25875;48.202;16.334;2023-03-18T01:38:29;99023.84;;;4.44;40.73
40155;BME280;25875;48.202;16.334;2023-03-18T01:40:58;99030.94;;;4.42;40.99
40155;BME280;25875;48.202;16.334;2023-03-18T01:43:26;99003.34;;;4.31;40.66
40155;BME280;25875;48.202;16.334;2023-03-18T01:45:55;99038.00;;;4.40;40.88
40155;BME280;25875;48.202;16.334;2023-03-18T01:48:24;99014.88;;;4.27;40.77
40155;BME280;25875;48.202;16.334;2023-03-18T01:50:54;99028.56;;;4.35;41.46
40155;BME280;25875;48.202;16.334;2023-03-18T01:53:27;99009.28;;;4.36;40.65
40155;BME280;25875;48.202;16.334;2023-03-18T01:55:55;99025.03;;;4.36;40.68
40155;BME280;25875;48.202;16.334;2023-03-18T01:58:26;98986.56;;;4.10;41.09
40155;BME280;25875;48.202;16.334;2023-03-18T02:00:59;99020.66;;;4.36;40.71
40155;BME280;25875;48.202;16.334;2023-03-18T02:03:27;99049.56;;;4.35;41.11
40155;BME280;25875;48.202;16.334;2023-03-18T02:05:54;99021.56;;;4.35;40.24
40155;BME280;25875;48.202;16.334;2023-03-18T02:08:22;99034.78;;;4.32;41.03
40155;BME280;25875;48.202;16.334;2023-03-18T02:10:50;99030.41;;;4.33;40.54
40155;BME280;25875;48.202;16.334;2023-03-18T02:13:17;99007.28;;;4.17;40.14
40155;BME280;25875;48.202;16.334;2023-03-18T02:15:48;99041.53;;;4.39;40.43
40155;BME280;25875;48.202;16.334;2023-03-18T02:18:20;99057.28;;;4.39;40.97
40155;BME280;25875;48.202;16.334;2023-03-18T02:21:07;99038.97;;;4.38;41.41
40155;BME280;25875;48.202;16.334;2023-03-18T02:23:42;99050.41;;;4.35;40.92
40155;BME280;25875;48.202;16.334;2023-03-18T02:26:15;99047.00;;;4.33;41.26
40155;BME280;25875;48.202;16.334;2023-03-18T02:28:48;99042.72;;;4.31;41.06
40155;BME280;25875;48.202;16.334;2023-03-18T02:31:16;99048.75;;;4.33;40.61
40155;BME280;25875;48.202;16.334;2023-03-18T02:33:44;99049.66;;;4.32;40.44
40155;BME280;25875;48.202;16.334;2023-03-18T02:36:16;99053.38;;;4.26;41.85
40155;BME280;25875;48.202;16.334;2023-03-18T02:38:44;99049.03;;;4.25;40.93
40155;BME280;25875;48.202;16.334;2023-03-18T02:41:13;99047.50;;;4.18;40.54
40155;BME280;25875;48.202;16.334;2023-03-18T02:43:40;99041.91;;;4.29;40.98
40155;BME280;25875;48.202;16.334;2023-03-18T02:46:27;98964.25;;;3.73;41.79
40155;BME280;25875;48.202;16.334;2023-03-18T02:48:55;99050.00;;;4.23;41.39
40155;BME280;25875;48.202;16.334;2023-03-18T02:51:24;98987.53;;;3.82;41.42
40155;BME280;25875;48.202;16.334;2023-03-18T02:53:51;99051.88;;;4.17;41.37
40155;BME280;25875;48.202;16.334;2023-03-18T02:56:19;99060.56;;;4.20;41.28
40155;BME280;25875;48.202;16.334;2023-03-18T02:58:46;99071.09;;;4.18;41.08
40155;BME280;25875;48.202;16.334;2023-03-18T03:01:14;99069.44;;;4.15;41.71
40155;BME280;25875;48.202;16.334;2023-03-18T03:03:41;99093.09;;;4.14;41.94
40155;BME280;25875;48.202;16.334;2023-03-18T03:06:08;98915.00;;;3.04;42.27
40155;BME280;25875;48.202;16.334;2023-03-18T03:08:35;99035.34;;;3.89;41.43
40155;BME280;25875;48.202;16.334;2023-03-18T03:11:02;99076.50;;;4.13;41.06
40155;BME280;25875;48.202;16.334;2023-03-18T03:13:29;99079.13;;;4.13;42.01
40155;BME280;25875;48.202;16.334;2023-03-18T03:15:57;99077.34;;;4.14;41.50
40155;BME280;25875;48.202;16.334;2023-03-18T03:18:25;99074.78;;;4.12;41.47
40155;BME280;25875;48.202;16.334;2023-03-18T03:20:52;99083.72;;;4.07;42.20
40155;BME280;25875;48.202;16.334;2023-03-18T03:23:19;98987.72;;;3.50;41.47
40155;BME280;25875;48.202;16.334;2023-03-18T03:25:46;99088.19;;;4.03;41.61
40155;BME280;25875;48.202;16.334;2023-03-18T03:28:13;99103.88;;;4.05;41.91
40155;BME280;25875;48.202;16.334;2023-03-18T03:30:41;99071.22;;;3.89;41.60
40155;BME280;25875;48.202;16.334;2023-03-18T03:33:08;99120.47;;;4.05;41.84
40155;BME280;25875;48.202;16.334;2023-03-18T03:35:37;99109.22;;;4.02;42.51
40155;BME280;25875;48.202;16.334;2023-03-18T03:38:04;99120.63;;;4.01;41.97
40155;BME280;25875;48.202;16.334;2023-03-18T03:40:31;99120.69;;;3.99;41.71
40155;BME280;25875;48.202;16.334;2023-03-18T03:42:58;99126.00;;;3.96;42.06
40155;BME280;25875;48.202;16.334;2023-03-18T03:45:25;99132.94;;;3.99;42.46
40155;BME280;25875;48.202;16.334;2023-03-18T03:47:52;99007.75;;;3.25;41.78
40155;BME280;25875;48.202;16.334;2023-03-18T03:50:19;99134.69;;;3.98;41.66
40155;BME280;25875;48.202;16.334;2023-03-18T03:52:47;99140.84;;;3.97;42.58
40155;BME280;25875;48.202;16.334;2023-03-18T03:55:16;98524.44;;;0.24;42.31
40155;BME280;25875;48.202;16.334;2023-03-18T03:57:44;99147.91;;;3.95;41.99
40155;BME280;25875;48.202;16.334;2023-03-18T04:00:13;99147.94;;;3.94;42.07
40155;BME280;25875;48.202;16.334;2023-03-18T04:02:41;99131.50;;;3.89;42.00
40155;BME280;25875;48.202;16.334;2023-03-18T04:05:10;99147.22;;;3.89;42.49
40155;BME280;25875;48.202;16.334;2023-03-18T04:07:38;99148.13;;;3.88;42.14
40155;BME280;25875;48.202;16.334;2023-03-18T04:10:08;99144.63;;;3.89;42.56
40155;BME280;25875;48.202;16.334;2023-03-18T04:12:35;99040.88;;;3.26;41.99
40155;BME280;25875;48.202;16.334;2023-03-18T04:15:03;99155.16;;;3.87;42.91
40155;BME280;25875;48.202;16.334;2023-03-18T04:17:30;99147.34;;;3.85;42.63
40155;BME280;25875;48.202;16.334;2023-03-18T04:19:56;99151.97;;;3.77;43.03
40155;BME280;25875;48.202;16.334;2023-03-18T04:22:23;99156.53;;;3.71;43.30
40155;BME280;25875;48.202;16.334;2023-03-18T04:24:50;99117.97;;;3.46;42.88
40155;BME280;25875;48.202;16.334;2023-03-18T04:27:18;99129.25;;;3.48;42.79
40155;BME280;25875;48.202;16.334;2023-03-18T04:29:47;99167.81;;;3.73;43.16
40155;BME280;25875;48.202;16.334;2023-03-18T04:32:13;99168.72;;;3.72;42.87
40155;BME280;25875;48.202;16.334;2023-03-18T04:34:40;99170.44;;;3.73;42.79
40155;BME280;25875;48.202;16.334;2023-03-18T04:37:07;99162.72;;;3.68;42.64
40155;BME280;25875;48.202;16.334;2023-03-18T04:39:34;99152.34;;;3.65;43.05
40155;BME280;25875;48.202;16.334;2023-03-18T04:42:01;99164.63;;;3.63;43.66
40155;BME280;25875;48.202;16.334;2023-03-18T04:44:29;99169.19;;;3.57;43.67
40155;BME280;25875;48.202;16.334;2023-03-18T04:46:56;99164.00;;;3.55;44.04
40155;BME280;25875;48.202;16.334;2023-03-18T04:49:22;99162.38;;;3.51;43.10
40155;BME280;25875;48.202;16.334;2023-03-18T04:51:49;99172.91;;;3.49;43.72
40155;BME280;25875;48.202;16.334;2023-03-18T04:54:16;99170.28;;;3.49;43.63
40155;BME280;25875;48.202;16.334;2023-03-18T04:56:43;99165.94;;;3.48;43.35
40155;BME280;25875;48.202;16.334;2023-03-18T04:59:11;99172.13;;;3.46;43.25
40155;BME280;25875;48.202;16.334;2023-03-18T05:01:39;99169.59;;;3.43;43.68
40155;BME280;25875;48.202;16.334;2023-03-18T05:04:06;99173.03;;;3.45;43.42
40155;BME280;25875;48.202;16.334;2023-03-18T05:06:32;99170.41;;;3.45;44.33
40155;BME280;25875;48.202;16.334;2023-03-18T05:08:59;99178.22;;;3.46;43.42
40155;BME280;25875;48.202;16.334;2023-03-18T05:11:26;99182.69;;;3.43;43.27
40155;BME280;25875;48.202;16.334;2023-03-18T05:13:53;99179.34;;;3.38;44.30
40155;BME280;25875;48.202;16.334;2023-03-18T05:16:20;99186.31;;;3.39;43.54
40155;BME280;25875;48.202;16.334;2023-03-18T05:18:49;99185.31;;;3.43;44.08
40155;BME280;25875;48.202;16.334;2023-03-18T05:21:16;99127.94;;;3.04;43.94
40155;BME280;25875;48.202;16.334;2023-03-18T05:23:43;99190.69;;;3.38;43.73
40155;BME280;25875;48.202;16.334;2023-03-18T05:26:09;99188.94;;;3.39;44.11
40155;BME280;25875;48.202;16.334;2023-03-18T05:28:37;99195.06;;;3.38;44.44
40155;BME280;25875;48.202;16.334;2023-03-18T05:31:04;99159.78;;;3.20;43.83
40155;BME280;25875;48.202;16.334;2023-03-18T05:33:31;99198.53;;;3.38;44.21
40155;BME280;25875;48.202;16.334;2023-03-18T05:36:00;99193.44;;;3.34;44.25
40155;BME280;25875;48.202;16.334;2023-03-18T05:38:27;99199.53;;;3.34;44.15
40155;BME280;25875;48.202;16.334;2023-03-18T05:40:54;99202.25;;;3.31;44.69
40155;BME280;25875;48.202;16.334;2023-03-18T05:43:21;99198.75;;;3.31;44.36
40155;BME280;25875;48.202;16.334;2023-03-18T05:45:49;99175.59;;;3.17;44.41
40155;BME280;25875;48.202;16.334;2023-03-18T05:48:16;99206.50;;;3.35;43.97
40155;BME280;25875;48.202;16.334;2023-03-18T05:50:43;99211.66;;;3.38;43.86
40155;BME280;25875;48.202;16.334;2023-03-18T05:53:12;99144.50;;;3.05;44.11
40155;BME280;25875;48.202;16.334;2023-03-18T05:55:41;99205.47;;;3.41;43.62
40155;BME280;25875;48.202;16.334;2023-03-18T05:58:09;99209.63;;;3.48;43.68
40155;BME280;25875;48.202;16.334;2023-03-18T06:00:36;99216.44;;;3.53;43.36
40155;BME280;25875;48.202;16.334;2023-03-18T06:03:03;99109.88;;;2.95;43.58
40155;BME280;25875;48.202;16.334;2023-03-18T06:05:30;99181.28;;;3.31;44.23
40155;BME280;25875;48.202;16.334;2023-03-18T06:07:57;99186.84;;;3.50;43.54
40155;BME280;25875;48.202;16.334;2023-03-18T06:10:26;99111.97;;;3.13;43.22
40155;BME280;25875;48.202;16.334;2023-03-18T06:12:53;99219.69;;;3.91;43.01
40155;BME280;25875;48.202;16.334;2023-03-18T06:15:21;99230.72;;;4.02;42.91
40155;BME280;25875;48.202;16.334;2023-03-18T06:17:49;99242.63;;;4.12;42.76
40155;BME280;25875;48.202;16.334;2023-03-18T06:20:17;99229.38;;;4.17;43.21
40155;BME280;25875;48.202;16.334;2023-03-18T06:22:44;99224.53;;;4.33;42.94
40155;BME280;25875;48.202;16.334;2023-03-18T06:25:15;99219.72;;;4.47;42.64
40155;BME280;25875;48.202;16.334;2023-03-18T06:27:44;99151.78;;;4.38;41.74
40155;BME280;25875;48.202;16.334;2023-03-18T06:30:14;99212.56;;;5.03;41.46
40155;BME280;25875;48.202;16.334;2023-03-18T06:32:41;99222.75;;;5.12;41.38
40155;BME280;25875;48.202;16.334;2023-03-18T06:35:09;99223.63;;;5.13;41.28
40155;BME280;25875;48.202;16.334;2023-03-18T06:37:36;99216.50;;;5.17;41.16
40155;BME280;25875;48.202;16.334;2023-03-18T06:40:05;99219.97;;;5.17;41.22
40155;BME280;25875;48.202;16.334;2023-03-18T06:42:32;99223.47;;;5.18;41.32
40155;BME280;25875;48.202;16.334;2023-03-18T06:45:01;99162.75;;;4.75;41.67
40155;BME280;25875;48.202;16.334;2023-03-18T06:47:28;99233.31;;;5.11;41.58
40155;BME280;25875;48.202;16.334;2023-03-18T06:49:55;99229.19;;;5.04;41.25
40155;BME280;25875;48.202;16.334;2023-03-18T06:52:22;99228.34;;;5.03;41.68
40155;BME280;25875;48.202;16.334;2023-03-18T06:54:50;99231.81;;;5.04;41.79
40155;BME280;25875;48.202;16.334;2023-03-18T06:57:17;99235.16;;;5.09;41.83
40155;BME280;25875;48.202;16.334;2023-03-18T06:59:45;99190.28;;;4.90;41.47
40155;BME280;25875;48.202;16.334;2023-03-18T07:02:14;99237.44;;;5.18;41.73
40155;BME280;25875;48.202;16.334;2023-03-18T07:04:40;99238.50;;;5.37;41.34
40155;BME280;25875;48.202;16.334;2023-03-18T07:07:07;99240.88;;;5.68;40.88
40155;BME280;25875;48.202;16.334;2023-03-18T07:09:35;99230.34;;;5.92;40.57
40155;BME280;25875;48.202;16.334;2023-03-18T07:12:02;99234.84;;;6.12;40.03
40155;BME280;25875;48.202;16.334;2023-03-18T07:14:30;99226.53;;;6.22;40.04
40155;BME280;25875;48.202;16.334;2023-03-18T07:16:57;99225.91;;;6.59;39.64
40155;BME280;25875;48.202;16.334;2023-03-18T07:19:26;99131.66;;;6.25;39.16
40155;BME280;25875;48.202;16.334;2023-03-18T07:21:53;99225.53;;;7.11;38.60
40155;BME280;25875;48.202;16.334;2023-03-18T07:24:20;99231.72;;;7.30;38.39
40155;BME280;25875;48.202;16.334;2023-03-18T07:26:47;99229.09;;;7.50;38.01
40155;BME280;25875;48.202;16.334;2023-03-18T07:29:15;99227.69;;;7.62;38.20
40155;BME280;25875;48.202;16.334;2023-03-18T07:31:42;99235.41;;;7.85;38.03
40155;BME280;25875;48.202;16.334;2023-03-18T07:34:09;99236.56;;;7.98;37.54
40155;BME280;25875;48.202;16.334;2023-03-18T07:36:37;99234.97;;;7.94;37.42
40155;BME280;25875;48.202;16.334;2023-03-18T07:39:04;99193.97;;;7.68;37.49
40155;BME280;25875;48.202;16.334;2023-03-18T07:41:31;99206.75;;;7.78;37.50
40155;BME280;25875;48.202;16.334;2023-03-18T07:43:58;99241.47;;;8.25;37.36
40155;BME280;25875;48.202;16.334;2023-03-18T07:46:25;99238.38;;;8.34;36.79
40155;BME280;25875;48.202;16.334;2023-03-18T07:48:52;99232.81;;;8.40;37.31
40155;BME280;25875;48.202;16.334;2023-03-18T07:51:20;99210.00;;;8.20;36.84
40155;BME280;25875;48.202;16.334;2023-03-18T07:53:48;99245.09;;;8.03;37.16
40155;BME280;25875;48.202;16.334;2023-03-18T07:56:16;99131.38;;;7.14;37.55
40155;BME280;25875;48.202;16.334;2023-03-18T07:58:43;99242.75;;;7.79;37.72
40155;BME280;25875;48.202;16.334;2023-03-18T08:01:10;99244.53;;;7.78;37.96
40155;BME280;25875;48.202;16.334;2023-03-18T08:03:40;99097.25;;;7.11;37.72
40155;BME280;25875;48.202;16.334;2023-03-18T08:06:08;99156.31;;;7.65;37.17
40155;BME280;25875;48.202;16.334;2023-03-18T08:08:35;99109.56;;;7.68;37.18
40155;BME280;25875;48.202;16.334;2023-03-18T08:11:04;99233.56;;;8.78;36.79
40155;BME280;25875;48.202;16.334;2023-03-18T08:13:32;99182.66;;;8.57;36.46
40155;BME280;25875;48.202;16.334;2023-03-18T08:15:59;99244.38;;;8.91;36.39
40155;BME280;25875;48.202;16.334;2023-03-18T08:18:26;99249.22;;;9.00;36.29
40155;BME280;25875;48.202;16.334;2023-03-18T08:20:53;99245.63;;;9.01;36.17
40155;BME280;25875;48.202;16.334;2023-03-18T08:23:20;99243.22;;;8.96;36.09
40155;BME280;25875;48.202;16.334;2023-03-18T08:25:47;99250.75;;;8.87;36.42
40155;BME280;25875;48.202;16.334;2023-03-18T08:28:17;99121.16;;;8.19;36.13
40155;BME280;25875;48.202;16.334;2023-03-18T08:30:44;99246.72;;;8.97;36.41
40155;BME280;25875;48.202;16.334;2023-03-18T08:33:13;99169.69;;;8.53;36.24
40155;BME280;25875;48.202;16.334;2023-03-18T08:35:40;99248.28;;;9.01;36.21
40155;BME280;25875;48.202;16.334;2023-03-18T08:38:07;99251.38;;;9.09;36.40
40155;BME280;25875;48.202;16.334;2023-03-18T08:40:34;99247.03;;;9.08;36.02
40155;BME280;25875;48.202;16.334;2023-03-18T08:43:01;99191.91;;;8.66;36.04
40155;BME280;25875;48.202;16.334;2023-03-18T08:45:29;99199.50;;;8.55;35.99
40155;BME280;25875;48.202;16.334;2023-03-18T08:47:57;99201.47;;;8.68;36.14
40155;BME280;25875;48.202;16.334;2023-03-18T08:50:24;99252.16;;;8.94;35.94
40155;BME280;25875;48.202;16.334;2023-03-18T08:52:53;99193.22;;;8.57;35.99
40155;BME280;25875;48.202;16.334;2023-03-18T08:55:22;99261.03;;;8.93;35.95
40155;BME280;25875;48.202;16.334;2023-03-18T08:57:49;99195.53;;;8.46;36.34
40155;BME280;25875;48.202;16.334;2023-03-18T09:00:18;99259.00;;;8.81;36.25
40155;BME280;25875;48.202;16.334;2023-03-18T09:02:47;99259.78;;;8.83;35.81
40155;BME280;25875;48.202;16.334;2023-03-18T09:05:14;99265.28;;;8.78;36.10
40155;BME280;25875;48.202;16.334;2023-03-18T09:07:42;99255.19;;;8.86;36.24
40155;BME280;25875;48.202;16.334;2023-03-18T09:10:10;99134.53;;;8.16;35.89
40155;BME280;25875;48.202;16.334;2023-03-18T09:12:39;99210.34;;;8.85;35.96
40155;BME280;25875;48.202;16.334;2023-03-18T09:15:08;99253.56;;;9.18;35.54
40155;BME280;25875;48.202;16.334;2023-03-18T09:17:35;99258.56;;;9.24;35.99
40155;BME280;25875;48.202;16.334;2023-03-18T09:20:08;99208.31;;;9.07;35.04
40155;BME280;25875;48.202;16.334;2023-03-18T09:22:36;99239.34;;;9.38;35.56
40155;BME280;25875;48.202;16.334;2023-03-18T09:25:04;99239.50;;;9.52;35.25
40155;BME280;25875;48.202;16.334;2023-03-18T09:27:31;99243.59;;;9.75;35.24
40155;BME280;25875;48.202;16.334;2023-03-18T09:29:57;99101.03;;;9.03;35.04
40155;BME280;25875;48.202;16.334;2023-03-18T09:32:24;99250.28;;;9.98;34.83
40155;BME280;25875;48.202;16.334;2023-03-18T09:34:52;99245.88;;;10.14;34.68
40155;BME280;25875;48.202;16.334;2023-03-18T09:37:20;99252.63;;;10.36;34.28
40155;BME280;25875;48.202;16.334;2023-03-18T09:39:47;99242.09;;;10.50;33.91
40155;BME280;25875;48.202;16.334;2023-03-18T09:42:27;98853.97;;;8.30;33.65
40155;BME280;25875;48.202;16.334;2023-03-18T09:45:03;99243.19;;;10.62;33.71
40155;BME280;25875;48.202;16.334;2023-03-18T09:47:48;99161.88;;;10.16;33.08
40155;BME280;25875;48.202;16.334;2023-03-18T09:50:33;99214.47;;;10.54;32.86
40155;BME280;25875;48.202;16.334;2023-03-18T09:53:13;99134.66;;;9.99;32.69
40155;BME280;25875;48.202;16.334;2023-03-18T09:55:43;98993.38;;;9.22;33.83
40155;BME280;25875;48.202;16.334;2023-03-18T09:58:19;99223.53;;;10.66;33.54
40155;BME280;25875;48.202;16.334;2023-03-18T10:00:49;99227.44;;;10.74;33.75
40155;BME280;25875;48.202;16.334;2023-03-18T10:03:25;99218.47;;;10.77;32.62
40155;BME280;25875;48.202;16.334;2023-03-18T10:05:55;99168.50;;;10.55;32.58
40155;BME280;25875;48.202;16.334;2023-03-18T10:08:37;99214.97;;;11.06;32.38
40155;BME280;25875;48.202;16.334;2023-03-18T10:11:15;99216.06;;;11.32;32.58
40155;BME280;25875;48.202;16.334;2023-03-18T10:13:47;99232.03;;;11.46;31.94
40155;BME280;25875;48.202;16.334;2023-03-18T10:16:22;99224.44;;;11.54;31.94
40155;BME280;25875;48.202;16.334;2023-03-18T10:18:52;99224.63;;;11.66;32.66
40155;BME280;25875;48.202;16.334;2023-03-18T10:21:25;99216.66;;;11.80;31.52
40155;BME280;25875;48.202;16.334;2023-03-18T10:24:05;99176.94;;;11.64;31.00
40155;BME280;25875;48.202;16.334;2023-03-18T10:26:39;99221.41;;;11.89;31.49
40155;BME280;25875;48.202;16.334;2023-03-18T10:29:20;99230.31;;;11.88;30.53
40155;BME280;25875;48.202;16.334;2023-03-18T10:32:00;99190.78;;;11.83;31.66
40155;BME280;25875;48.202;16.334;2023-03-18T10:34:36;99207.00;;;12.22;30.99
40155;BME280;25875;48.202;16.334;2023-03-18T10:37:09;99207.19;;;12.18;30.92
40155;BME280;25875;48.202;16.334;2023-03-18T10:39:41;99127.53;;;11.76;31.28
40155;BME280;25875;48.202;16.334;2023-03-18T10:42:19;99106.22;;;11.63;30.60
40155;BME280;25875;48.202;16.334;2023-03-18T10:44:49;99181.53;;;12.32;31.57
40155;BME280;25875;48.202;16.334;2023-03-18T10:47:20;99207.97;;;12.47;31.47
40155;BME280;25875;48.202;16.334;2023-03-18T10:49:54;99204.72;;;12.57;31.46
40155;BME280;25875;48.202;16.334;2023-03-18T10:52:29;99143.88;;;12.25;31.19
40155;BME280;25875;48.202;16.334;2023-03-18T10:55:00;99202.09;;;12.69;30.63
40155;BME280;25875;48.202;16.334;2023-03-18T10:57:27;99199.44;;;12.69;31.76
40155;BME280;25875;48.202;16.334;2023-03-18T10:59:54;99203.28;;;12.78;31.64
40155;BME280;25875;48.202;16.334;2023-03-18T11:02:24;99198.41;;;12.84;30.98
40155;BME280;25875;48.202;16.334;2023-03-18T11:04:54;99195.66;;;12.86;30.93
40155;BME280;25875;48.202;16.334;2023-03-18T11:07:24;99134.75;;;12.56;31.02
40155;BME280;25875;48.202;16.334;2023-03-18T11:09:53;99090.19;;;12.20;31.02
40155;BME280;25875;48.202;16.334;2023-03-18T11:12:25;99164.28;;;12.51;30.43
40155;BME280;25875;48.202;16.334;2023-03-18T11:14:52;99182.44;;;12.72;31.54
40155;BME280;25875;48.202;16.334;2023-03-18T11:17:21;99182.16;;;12.89;31.35
40155;BME280;25875;48.202;16.334;2023-03-18T11:20:00;99194.28;;;12.93;30.65
40155;BME280;25875;48.202;16.334;2023-03-18T11:22:30;99186.34;;;13.06;31.09
40155;BME280;25875;48.202;16.334;2023-03-18T11:25:02;99183.38;;;13.10;30.71
40155;BME280;25875;48.202;16.334;2023-03-18T11:27:44;99185.28;;;13.08;29.69
40155;BME280;25875;48.202;16.334;2023-03-18T11:30:18;99176.34;;;13.09;30.54
40155;BME280;25875;48.202;16.334;2023-03-18T11:32:53;99127.88;;;12.79;29.74
40155;BME280;25875;48.202;16.334;2023-03-18T11:35:22;99056.22;;;12.25;31.03
40155;BME280;25875;48.202;16.334;2023-03-18T11:37:51;99179.84;;;13.10;30.71
40155;BME280;25875;48.202;16.334;2023-03-18T11:40:23;99187.94;;;13.08;30.18
40155;BME280;25875;48.202;16.334;2023-03-18T11:42:58;99155.78;;;13.11;30.20
40155;BME280;25875;48.202;16.334;2023-03-18T11:45:45;99143.22;;;12.88;29.88
40155;BME280;25875;48.202;16.334;2023-03-18T11:48:16;99145.75;;;12.77;30.58
40155;BME280;25875;48.202;16.334;2023-03-18T11:50:55;99143.97;;;12.90;30.23
40155;BME280;25875;48.202;16.334;2023-03-18T11:53:32;99111.69;;;12.69;30.83
40155;BME280;25875;48.202;16.334;2023-03-18T11:56:07;99137.06;;;13.13;30.90
40155;BME280;25875;48.202;16.334;2023-03-18T11:58:59;99141.75;;;13.35;30.04
40155;BME280;25875;48.202;16.334;2023-03-18T12:01:41;99086.41;;;13.14;30.11
40155;BME280;25875;48.202;16.334;2023-03-18T12:04:37;99123.00;;;13.36;29.81
40155;BME280;25875;48.202;16.334;2023-03-18T12:07:24;99126.00;;;13.57;30.03
40155;BME280;25875;48.202;16.334;2023-03-18T12:10:00;99073.84;;;13.29;30.13
40155;BME280;25875;48.202;16.334;2023-03-18T12:12:45;99109.19;;;13.57;29.81
40155;BME280;25875;48.202;16.334;2023-03-18T12:15:24;99108.41;;;13.67;30.04
40155;BME280;25875;48.202;16.334;2023-03-18T12:18:04;99045.09;;;13.34;30.08
40155;BME280;25875;48.202;16.334;2023-03-18T12:20:46;99115.97;;;13.73;29.90
40155;BME280;25875;48.202;16.334;2023-03-18T12:23:36;99099.16;;;13.60;30.08
40155;BME280;25875;48.202;16.334;2023-03-18T12:26:06;99104.00;;;13.79;30.45
40155;BME280;25875;48.202;16.334;2023-03-18T12:28:41;99104.88;;;13.79;29.82
40155;BME280;25875;48.202;16.334;2023-03-18T12:31:27;99098.69;;;13.79;29.94
40155;BME280;25875;48.202;16.334;2023-03-18T12:33:58;99095.25;;;13.90;30.40
40155;BME280;25875;48.202;16.334;2023-03-18T12:36:39;99061.28;;;13.80;29.91
40155;BME280;25875;48.202;16.334;2023-03-18T12:39:26;99100.97;;;13.96;29.76
40155;BME280;25875;48.202;16.334;2023-03-18T12:42:01;99099.28;;;13.95;29.90
40155;BME280;25875;48.202;16.334;2023-03-18T12:44:44;99106.81;;;14.01;29.91
40155;BME280;25875;48.202;16.334;2023-03-18T12:47:19;99103.19;;;14.02;30.24
40155;BME280;25875;48.202;16.334;2023-03-18T12:49:51;99105.63;;;14.05;30.61
40155;BME280;25875;48.202;16.334;2023-03-18T12:52:26;99089.00;;;14.02;29.89
40155;BME280;25875;48.202;16.334;2023-03-18T12:55:00;99094.13;;;14.05;30.06
40155;BME280;25875;48.202;16.334;2023-03-18T12:57:35;99072.50;;;13.97;30.15
40155;BME280;25875;48.202;16.334;2023-03-18T13:00:12;99045.19;;;13.82;29.80
40155;BME280;25875;48.202;16.334;2023-03-18T13:02:48;99040.25;;;13.89;29.98
40155;BME280;25875;48.202;16.334;2023-03-18T13:05:26;99089.00;;;14.26;30.18
40155;BME280;25875;48.202;16.334;2023-03-18T13:08:24;99084.06;;;14.32;29.75
40155;BME280;25875;48.202;16.334;2023-03-18T13:10:57;99051.94;;;14.23;30.11
40155;BME280;25875;48.202;16.334;2023-03-18T13:13:32;99074.19;;;14.45;29.75